createdAt,value
2017-10-02T00:00:31.741Z,83.66
2017-10-02T00:02:59.996Z,83.23
2017-10-02T00:05:28.241Z,83.04
2017-10-02T00:07:56.497Z,83.38
2017-10-02T00:10:24.744Z,83.19
2017-10-02T00:12:53.765Z,83.31
2017-10-02T00:15:21.997Z,83.13
2017-10-02T00:17:51.014Z,83.42
2017-10-02T00:20:19.252Z,83.68
2017-10-02T00:22:47.513Z,83.95
2017-10-02T00:25:15.761Z,84.20
2017-10-02T00:27:44.004Z,84.02
2017-10-02T00:30:13.018Z,84.18
2017-10-02T00:32:41.263Z,84.12
2017-10-02T00:35:10.278Z,84.20
2017-10-02T00:37:38.521Z,84.97
2017-10-02T00:40:06.774Z,85.34
2017-10-02T00:42:35.018Z,84.93
2017-10-02T00:45:03.265Z,84.85
2017-10-02T00:47:32.277Z,85.12
2017-10-02T00:50:00.520Z,85.26
2017-10-02T00:52:29.533Z,84.83
2017-10-02T00:54:57.784Z,85.52
2017-10-02T00:57:26.793Z,85.62
2017-10-02T00:59:55.801Z,85.32
2017-10-02T01:02:24.073Z,85.99
2017-10-02T01:04:52.315Z,86.13
2017-10-02T01:07:20.558Z,85.97
2017-10-02T01:09:48.801Z,86.17
2017-10-02T01:12:17.043Z,86.42
2017-10-02T01:14:45.293Z,86.46
2017-10-02T01:17:13.541Z,86.34
2017-10-02T01:19:41.777Z,86.18
2017-10-02T01:22:10.790Z,85.79
2017-10-02T01:24:39.040Z,85.45
2017-10-02T01:27:07.296Z,85.33
2017-10-02T01:29:35.534Z,85.17
2017-10-02T01:32:03.773Z,85.10
2017-10-02T01:34:32.794Z,85.14
2017-10-02T01:37:01.029Z,85.08
2017-10-02T01:39:29.278Z,85.45
2017-10-02T01:41:57.517Z,85.50
2017-10-02T01:44:25.766Z,85.42
2017-10-02T01:46:53.998Z,85.40
2017-10-02T01:49:22.241Z,85.28
2017-10-02T01:51:50.482Z,85.66
2017-10-02T01:54:18.738Z,85.77
2017-10-02T01:56:46.973Z,86.10
2017-10-02T01:59:15.228Z,85.85
2017-10-02T02:01:44.232Z,85.98
2017-10-02T02:04:12.485Z,85.59
2017-10-02T02:06:41.497Z,85.54
2017-10-02T02:09:09.738Z,86.31
2017-10-02T02:11:37.989Z,86.07
2017-10-02T02:14:06.230Z,85.97
2017-10-02T02:16:34.476Z,85.90
2017-10-02T02:19:03.480Z,85.83
2017-10-02T02:21:32.496Z,85.66
2017-10-02T02:24:00.745Z,85.22
2017-10-02T02:26:29.753Z,85.00
2017-10-02T02:28:57.997Z,85.00
2017-10-02T02:31:26.246Z,85.01
2017-10-02T02:33:54.491Z,85.38
2017-10-02T02:36:22.738Z,85.30
2017-10-02T02:38:51.750Z,85.42
2017-10-02T02:41:19.994Z,85.16
2017-10-02T02:43:49.009Z,85.15
2017-10-02T02:46:17.263Z,85.41
2017-10-02T02:48:45.499Z,85.10
2017-10-02T02:51:13.744Z,86.12
2017-10-02T02:53:41.984Z,86.64
2017-10-02T02:56:10.237Z,86.82
2017-10-02T02:58:38.477Z,86.67
2017-10-02T03:01:06.721Z,86.59
2017-10-02T03:03:35.735Z,86.54
2017-10-02T03:06:03.982Z,86.68
2017-10-02T03:08:32.229Z,86.89
2017-10-02T03:11:00.479Z,87.19
2017-10-02T03:13:28.738Z,86.44
2017-10-02T03:15:56.972Z,86.29
2017-10-02T03:18:25.226Z,86.07
2017-10-02T03:20:53.466Z,86.04
2017-10-02T03:23:21.714Z,86.05
2017-10-02T03:25:50.726Z,86.67
2017-10-02T03:28:18.981Z,85.92
2017-10-02T03:30:47.220Z,85.63
2017-10-02T03:33:15.470Z,85.44
2017-10-02T03:35:43.710Z,84.72
2017-10-02T03:38:12.717Z,84.16
2017-10-02T03:40:40.969Z,83.95
2017-10-02T03:43:09.217Z,83.95
2017-10-02T03:45:37.456Z,84.14
2017-10-02T03:48:05.717Z,84.38
2017-10-02T03:50:33.953Z,84.71
2017-10-02T03:53:02.191Z,84.58
2017-10-02T03:55:30.442Z,85.03
2017-10-02T03:57:59.445Z,85.00
2017-10-02T04:00:27.695Z,84.69
2017-10-02T04:02:56.701Z,84.94
2017-10-02T04:05:25.712Z,85.13
2017-10-02T04:07:53.957Z,85.20
2017-10-02T04:10:22.976Z,85.01
2017-10-02T04:12:51.224Z,84.88
2017-10-02T04:15:20.241Z,85.15
2017-10-02T04:17:48.479Z,84.86
2017-10-02T04:20:16.729Z,84.27
2017-10-02T04:22:44.973Z,85.05
2017-10-02T04:25:13.222Z,84.11
2017-10-02T04:27:42.232Z,84.58
2017-10-02T04:30:10.485Z,85.56
2017-10-02T04:32:39.499Z,85.57
2017-10-02T04:35:07.757Z,85.69
2017-10-02T04:37:36.769Z,85.47
2017-10-02T04:40:05.013Z,85.14
2017-10-02T04:42:33.267Z,85.25
2017-10-02T04:45:01.506Z,85.42
2017-10-02T04:47:29.755Z,85.44
2017-10-02T04:49:58.762Z,85.39
2017-10-02T04:52:27.013Z,85.29
2017-10-02T04:54:56.021Z,85.27
2017-10-02T04:57:25.046Z,85.33
2017-10-02T04:59:53.282Z,85.09
2017-10-02T05:02:22.298Z,85.06
2017-10-02T05:04:50.539Z,85.05
2017-10-02T05:07:18.789Z,84.96
2017-10-02T05:09:47.034Z,84.16
2017-10-02T05:12:15.285Z,83.69
2017-10-02T05:14:43.531Z,83.25
2017-10-02T05:17:11.798Z,82.89
2017-10-02T05:19:40.035Z,83.18
2017-10-02T05:22:08.280Z,82.99
2017-10-02T05:24:37.296Z,82.84
2017-10-02T05:27:05.538Z,82.68
2017-10-02T05:29:34.554Z,82.50
2017-10-02T05:32:02.793Z,82.25
2017-10-02T05:34:31.045Z,82.33
2017-10-02T05:36:59.293Z,82.45
2017-10-02T05:39:27.549Z,82.30
2017-10-02T05:41:56.561Z,81.65
2017-10-02T05:44:24.812Z,81.31
2017-10-02T05:46:53.821Z,82.08
2017-10-02T05:49:22.074Z,82.01
2017-10-02T05:51:51.094Z,82.02
2017-10-02T05:54:19.348Z,81.87
2017-10-02T05:56:48.358Z,81.57
2017-10-02T05:59:16.621Z,81.21
2017-10-02T06:01:45.637Z,80.60
2017-10-02T06:04:13.902Z,80.22
2017-10-02T06:06:42.146Z,79.94
2017-10-02T06:09:10.390Z,79.16
2017-10-02T06:11:39.491Z,78.96
2017-10-02T06:14:07.745Z,78.63
2017-10-02T06:16:35.990Z,77.91
2017-10-02T06:19:04.238Z,77.89
2017-10-02T06:21:32.491Z,77.82
2017-10-02T06:24:00.733Z,77.84
2017-10-02T06:26:28.986Z,77.46
2017-10-02T06:28:57.994Z,76.99
2017-10-02T06:31:26.242Z,76.85
2017-10-02T06:33:55.257Z,77.35
2017-10-02T06:36:23.511Z,75.93
2017-10-02T06:38:52.519Z,76.58
2017-10-02T06:41:20.770Z,76.11
2017-10-02T06:43:49.012Z,76.05
2017-10-02T06:46:17.266Z,75.63
2017-10-02T06:48:45.509Z,75.22
2017-10-02T06:51:14.516Z,75.24
2017-10-02T06:53:42.773Z,75.18
2017-10-02T06:56:11.017Z,75.00
2017-10-02T06:58:39.273Z,75.28
2017-10-02T07:01:08.289Z,75.14
2017-10-02T07:03:36.553Z,75.09
2017-10-02T07:06:05.573Z,73.83
2017-10-02T07:08:33.829Z,74.52
2017-10-02T07:11:02.077Z,73.87
2017-10-02T07:13:30.328Z,73.69
2017-10-02T07:15:58.573Z,73.80
2017-10-02T07:18:26.842Z,73.76
2017-10-02T07:20:55.089Z,73.56
2017-10-02T07:23:23.336Z,74.11
2017-10-02T07:25:51.589Z,74.30
2017-10-02T07:28:19.840Z,73.79
2017-10-02T07:30:48.098Z,74.18
2017-10-02T07:33:17.106Z,73.70
2017-10-02T07:35:45.360Z,73.42
2017-10-02T07:38:14.373Z,73.73
2017-10-02T07:40:42.632Z,73.52
2017-10-02T07:43:11.637Z,73.83
2017-10-02T07:45:39.893Z,73.44
2017-10-02T07:48:08.909Z,73.50
2017-10-02T07:50:37.161Z,73.45
2017-10-02T07:53:06.913Z,73.86
2017-10-02T07:55:35.162Z,73.25
2017-10-02T07:58:04.270Z,73.44
2017-10-02T08:00:32.519Z,73.54
2017-10-02T08:03:00.765Z,73.78
2017-10-02T08:05:29.018Z,72.93
2017-10-02T08:07:57.276Z,73.96
2017-10-02T08:10:25.512Z,73.83
2017-10-02T08:12:54.528Z,74.73
2017-10-02T08:15:23.537Z,74.67
2017-10-02T08:17:51.796Z,75.15
2017-10-02T08:20:20.809Z,75.55
2017-10-02T08:22:49.053Z,75.09
2017-10-02T08:25:18.074Z,75.48
2017-10-02T08:27:46.323Z,75.65
2017-10-02T08:30:15.344Z,76.28
2017-10-02T08:32:43.582Z,76.43
2017-10-02T08:35:11.829Z,78.21
2017-10-02T08:37:40.077Z,76.65
2017-10-02T08:40:08.335Z,76.54
2017-10-02T08:42:37.353Z,77.09
2017-10-02T08:45:05.605Z,77.24
2017-10-02T08:47:33.853Z,76.80
2017-10-02T08:50:02.884Z,77.96
2017-10-02T08:52:31.122Z,77.68
2017-10-02T08:54:59.381Z,77.54
2017-10-02T08:57:27.625Z,77.68
2017-10-02T08:59:55.881Z,78.69
2017-10-02T09:02:24.129Z,77.15
2017-10-02T09:04:53.137Z,78.83
2017-10-02T09:07:22.151Z,79.00
2017-10-02T09:09:50.397Z,77.79
2017-10-02T09:12:19.429Z,79.00
2017-10-02T09:14:48.260Z,78.45
2017-10-02T09:17:16.609Z,77.81
2017-10-02T09:19:44.950Z,77.24
2017-10-02T09:22:13.282Z,77.55
2017-10-02T09:24:41.622Z,76.43
2017-10-02T09:27:09.971Z,76.41
2017-10-02T09:29:39.086Z,77.32
2017-10-02T09:32:07.411Z,75.74
2017-10-02T09:34:35.657Z,76.71
2017-10-02T09:37:03.918Z,76.33
2017-10-02T09:39:32.296Z,76.80
2017-10-02T09:42:00.633Z,77.51
2017-10-02T09:44:28.939Z,76.50
2017-10-02T09:46:57.294Z,76.99
2017-10-02T09:49:26.332Z,77.06
2017-10-02T09:51:54.704Z,76.93
2017-10-02T09:54:22.998Z,76.26
2017-10-02T09:56:51.417Z,76.67
2017-10-02T09:59:19.738Z,76.78
2017-10-02T10:01:48.061Z,77.44
2017-10-02T10:04:16.391Z,77.64
2017-10-02T10:06:44.760Z,76.39
2017-10-02T10:09:13.032Z,76.10
2017-10-02T10:11:41.299Z,76.42
2017-10-02T10:14:09.569Z,75.77
2017-10-02T10:16:37.861Z,74.91
2017-10-02T10:19:06.136Z,75.64
2017-10-02T10:21:34.396Z,75.20
2017-10-02T10:24:03.414Z,74.97
2017-10-02T10:26:33.286Z,74.30
2017-10-02T10:29:01.625Z,74.66
2017-10-02T10:31:29.957Z,75.44
2017-10-02T10:33:59.046Z,75.13
2017-10-02T10:36:28.198Z,75.67
2017-10-02T10:38:57.593Z,74.95
2017-10-02T10:41:26.018Z,75.15
2017-10-02T10:43:55.119Z,74.91
2017-10-02T10:46:24.202Z,74.91
2017-10-02T10:48:52.497Z,74.97
2017-10-02T10:51:21.648Z,74.39
2017-10-02T10:53:49.940Z,73.68
2017-10-02T10:56:18.204Z,73.36
2017-10-02T10:58:46.461Z,73.32
2017-10-02T11:01:14.710Z,73.32
2017-10-02T11:03:43.064Z,72.94
2017-10-02T11:06:12.088Z,72.01
2017-10-02T11:08:47.157Z,71.98
2017-10-02T11:11:15.510Z,71.71
2017-10-02T11:13:43.878Z,70.95
2017-10-02T11:16:12.274Z,71.30
2017-10-02T11:18:40.525Z,70.67
2017-10-02T11:21:08.769Z,71.46
2017-10-02T11:23:38.374Z,71.01
2017-10-02T11:26:06.682Z,71.14
2017-10-02T11:28:35.026Z,70.30
2017-10-02T11:31:18.895Z,70.25
2017-10-02T11:33:59.017Z,69.64
2017-10-02T11:36:27.355Z,70.00
2017-10-02T11:38:55.647Z,69.69
2017-10-02T11:41:23.974Z,69.58
2017-10-02T11:43:53.040Z,69.92
2017-10-02T11:46:21.350Z,69.96
2017-10-02T11:48:50.389Z,69.85
2017-10-02T11:51:18.627Z,68.64
2017-10-02T11:53:46.921Z,69.04
2017-10-02T11:56:15.207Z,68.89
2017-10-02T11:58:43.528Z,69.37
2017-10-02T12:01:11.880Z,69.16
2017-10-02T12:03:40.442Z,69.42
2017-10-02T12:06:08.681Z,68.97
2017-10-02T12:08:37.033Z,68.90
2017-10-02T12:11:05.285Z,68.75
2017-10-02T12:13:33.552Z,69.20
2017-10-02T12:16:01.831Z,69.22
2017-10-02T12:18:30.086Z,69.25
2017-10-02T12:20:58.475Z,69.24
2017-10-02T12:23:26.778Z,69.49
2017-10-02T12:25:55.074Z,68.95
2017-10-02T12:28:24.142Z,69.40
2017-10-02T12:30:52.450Z,69.32
2017-10-02T12:33:21.486Z,69.75
2017-10-02T12:35:49.778Z,69.65
2017-10-02T12:38:18.081Z,69.69
2017-10-02T12:40:46.382Z,70.10
2017-10-02T12:43:15.479Z,70.35
2017-10-02T12:45:43.787Z,70.69
2017-10-02T12:48:12.050Z,70.38
2017-10-02T12:50:40.304Z,70.83
2017-10-02T12:53:09.392Z,71.62
2017-10-02T12:55:37.751Z,72.21
2017-10-02T12:58:06.208Z,72.74
2017-10-02T13:00:34.563Z,72.76
2017-10-02T13:03:03.649Z,72.66
2017-10-02T13:05:32.722Z,72.94
2017-10-02T13:08:01.023Z,72.82
2017-10-02T13:10:30.099Z,73.30
2017-10-02T13:12:58.388Z,73.04
2017-10-02T13:15:26.707Z,72.83
2017-10-02T13:17:55.038Z,72.27
2017-10-02T13:20:24.114Z,72.13
2017-10-02T13:22:52.426Z,71.35
2017-10-02T13:25:21.539Z,70.21
2017-10-02T13:27:49.842Z,71.78
2017-10-02T13:30:18.128Z,72.48
2017-10-02T13:32:46.465Z,73.36
2017-10-02T13:35:15.786Z,73.50
2017-10-02T13:37:44.103Z,73.29
2017-10-02T13:40:13.249Z,74.05
2017-10-02T13:42:41.585Z,74.09
2017-10-02T13:45:09.917Z,74.47
2017-10-02T13:47:38.214Z,74.79
2017-10-02T13:50:07.302Z,74.83
2017-10-02T13:52:35.629Z,74.91
2017-10-02T13:55:04.689Z,75.29
2017-10-02T13:57:32.955Z,75.53
2017-10-02T14:00:01.280Z,75.89
2017-10-02T14:02:29.574Z,76.37
2017-10-02T14:04:57.871Z,77.13
2017-10-02T14:07:26.169Z,77.46
2017-10-02T14:09:54.453Z,77.69
2017-10-02T14:12:22.730Z,77.82
2017-10-02T14:14:51.053Z,77.91
2017-10-02T14:17:19.370Z,78.12
2017-10-02T14:19:47.614Z,78.64
2017-10-02T14:22:15.861Z,78.90
2017-10-02T14:24:44.106Z,79.20
2017-10-02T14:27:12.367Z,81.49
2017-10-02T14:29:40.629Z,82.42
2017-10-02T14:32:08.882Z,82.80
2017-10-02T14:34:37.124Z,82.76
2017-10-02T14:37:06.151Z,83.54
2017-10-02T14:39:34.394Z,86.18
2017-10-02T14:42:03.405Z,86.39
2017-10-02T14:44:31.664Z,85.35
2017-10-02T14:47:00.674Z,84.96
2017-10-02T14:49:30.083Z,84.90
2017-10-02T14:51:58.399Z,84.88
2017-10-02T14:54:26.666Z,84.38
2017-10-02T14:56:54.953Z,84.72
2017-10-02T14:59:24.016Z,84.73
2017-10-02T15:01:52.280Z,84.50
2017-10-02T15:04:20.535Z,84.01
2017-10-02T15:06:49.563Z,84.24
2017-10-02T15:09:17.859Z,84.02
2017-10-02T15:11:46.125Z,83.69
2017-10-02T15:14:14.399Z,83.91
2017-10-02T15:16:42.658Z,83.96
2017-10-02T15:19:10.905Z,83.95
2017-10-02T15:21:39.927Z,83.60
2017-10-02T15:24:08.175Z,83.38
2017-10-02T15:26:37.373Z,82.84
2017-10-02T15:29:06.454Z,83.04
2017-10-02T15:31:34.699Z,83.24
2017-10-02T15:34:02.953Z,83.29
2017-10-02T15:36:31.215Z,83.67
2017-10-02T15:38:59.458Z,83.43
2017-10-02T15:41:28.478Z,83.28
2017-10-02T15:43:56.732Z,83.48
2017-10-02T15:46:25.751Z,83.21
2017-10-02T15:48:53.997Z,83.13
2017-10-02T15:51:23.026Z,83.32
2017-10-02T15:53:51.286Z,82.96
2017-10-02T15:56:20.464Z,83.08
2017-10-02T15:58:48.732Z,83.06
2017-10-02T16:01:17.868Z,83.01
2017-10-02T16:03:46.294Z,83.13
2017-10-02T16:06:14.619Z,83.26
2017-10-02T16:08:42.890Z,83.20
2017-10-02T16:11:11.134Z,83.52
2017-10-02T16:13:39.389Z,83.16
2017-10-02T16:16:07.662Z,83.28
2017-10-02T16:18:35.993Z,83.57
2017-10-02T16:21:04.314Z,83.50
2017-10-02T16:23:32.644Z,83.76
2017-10-02T16:26:00.934Z,83.60
2017-10-02T16:28:29.208Z,83.28
2017-10-02T16:30:57.485Z,83.41
2017-10-02T16:33:25.765Z,83.42
2017-10-02T16:35:54.174Z,83.46
2017-10-02T16:38:22.457Z,83.64
2017-10-02T16:40:50.820Z,83.40
2017-10-02T16:43:19.118Z,83.46
2017-10-02T16:45:47.426Z,83.93
2017-10-02T16:48:16.511Z,84.29
2017-10-02T16:50:45.557Z,84.82
2017-10-02T16:53:13.826Z,85.14
2017-10-02T16:55:42.057Z,85.17
2017-10-02T16:58:11.076Z,85.33
2017-10-02T17:00:39.312Z,85.08
2017-10-02T17:03:07.569Z,84.91
2017-10-02T17:05:35.810Z,84.52
2017-10-02T17:08:04.057Z,84.36
2017-10-02T17:10:33.075Z,84.68
2017-10-02T17:13:01.319Z,84.54
2017-10-02T17:15:30.330Z,84.72
2017-10-02T17:17:58.588Z,84.68
2017-10-02T17:20:26.828Z,84.44
2017-10-02T17:22:55.077Z,84.45
2017-10-02T17:25:23.316Z,84.51
2017-10-02T17:27:52.341Z,84.25
2017-10-02T17:30:20.584Z,84.17
2017-10-02T17:32:49.607Z,84.58
2017-10-02T17:35:17.896Z,85.03
2017-10-02T17:37:46.158Z,85.22
2017-10-02T17:40:14.450Z,85.50
2017-10-02T17:42:42.807Z,85.98
2017-10-02T17:45:11.098Z,86.67
2017-10-02T17:47:39.453Z,87.03
2017-10-02T17:50:07.778Z,86.68
2017-10-02T17:52:36.105Z,86.34
2017-10-02T17:55:04.445Z,86.49
2017-10-02T17:57:32.795Z,86.13
2017-10-02T18:00:01.108Z,86.36
2017-10-02T18:02:30.195Z,86.40
2017-10-02T18:04:59.214Z,86.31
2017-10-02T18:07:28.235Z,86.31
2017-10-02T18:09:56.512Z,86.30
2017-10-02T18:12:24.778Z,86.30
2017-10-02T18:14:53.045Z,86.03
2017-10-02T18:17:21.382Z,85.51
2017-10-02T18:19:49.744Z,85.86
2017-10-02T18:22:18.068Z,85.91
2017-10-02T18:24:47.623Z,86.27
2017-10-02T18:27:25.900Z,85.90
2017-10-02T18:29:54.269Z,86.06
2017-10-02T18:32:23.346Z,85.87
2017-10-02T18:34:52.414Z,86.12
2017-10-02T18:37:20.725Z,86.03
2017-10-02T18:39:49.805Z,85.83
2017-10-02T18:42:18.889Z,85.77
2017-10-02T18:44:47.220Z,85.81
2017-10-02T18:47:15.583Z,86.09
2017-10-02T18:49:49.527Z,85.91
2017-10-02T18:52:21.641Z,85.50
2017-10-02T18:54:50.795Z,85.73
2017-10-02T18:57:19.139Z,85.71
2017-10-02T18:59:47.400Z,85.49
2017-10-02T19:02:16.584Z,85.48
2017-10-02T19:04:44.816Z,85.52
2017-10-02T19:07:13.052Z,85.14
2017-10-02T19:09:41.309Z,85.12
2017-10-02T19:12:09.562Z,84.28
2017-10-02T19:14:37.809Z,84.37
2017-10-02T19:17:06.828Z,83.40
2017-10-02T19:19:35.070Z,82.95
2017-10-02T19:22:04.072Z,82.73
2017-10-02T19:24:32.330Z,82.38
2017-10-02T19:27:01.337Z,81.75
2017-10-02T19:29:30.355Z,81.75
2017-10-02T19:31:58.602Z,81.07
2017-10-02T19:34:27.627Z,80.72
2017-10-02T19:36:55.874Z,79.90
2017-10-02T19:39:24.879Z,78.92
2017-10-02T19:41:53.129Z,78.82
2017-10-02T19:44:22.156Z,79.00
2017-10-02T19:46:50.402Z,77.88
2017-10-02T19:49:19.421Z,77.49
2017-10-02T19:51:47.670Z,76.64
2017-10-02T19:54:16.682Z,77.49
2017-10-02T19:56:44.938Z,77.36
2017-10-02T19:59:13.937Z,77.13
2017-10-02T20:01:42.949Z,77.56
2017-10-02T20:04:11.190Z,77.56
2017-10-02T20:06:39.443Z,77.96
2017-10-02T20:09:07.692Z,77.55
2017-10-02T20:11:35.952Z,77.15
2017-10-02T20:14:04.192Z,77.29
2017-10-02T20:16:33.207Z,77.65
2017-10-02T20:19:02.217Z,77.37
2017-10-02T20:21:30.465Z,77.03
2017-10-02T20:23:59.485Z,77.56
2017-10-02T20:26:27.732Z,77.54
2017-10-02T20:28:56.740Z,77.25
2017-10-02T20:31:24.998Z,77.41
2017-10-02T20:33:54.014Z,77.24
2017-10-02T20:36:22.266Z,77.53
2017-10-02T20:38:51.290Z,77.97
2017-10-02T20:41:19.538Z,77.67
2017-10-02T20:43:48.558Z,77.74
2017-10-02T20:46:16.812Z,77.95
2017-10-02T20:48:45.812Z,77.77
2017-10-02T20:51:14.065Z,77.84
2017-10-02T20:53:43.081Z,77.91
2017-10-02T20:56:11.333Z,77.63
2017-10-02T20:58:39.585Z,77.13
2017-10-02T21:01:07.841Z,77.43
2017-10-02T21:03:36.092Z,77.68
2017-10-02T21:06:04.341Z,77.93
2017-10-02T21:08:33.350Z,78.17
2017-10-02T21:11:01.604Z,78.35
2017-10-02T21:13:30.614Z,78.51
2017-10-02T21:15:59.635Z,78.79
2017-10-02T21:18:27.874Z,78.99
2017-10-02T21:20:56.893Z,78.98
2017-10-02T21:23:25.354Z,79.30
2017-10-02T21:25:53.605Z,79.56
2017-10-02T21:28:21.857Z,79.76
2017-10-02T21:30:50.110Z,79.63
2017-10-02T21:33:18.375Z,79.94
2017-10-02T21:35:46.615Z,79.86
2017-10-02T21:38:14.870Z,79.84
2017-10-02T21:40:43.113Z,79.57
2017-10-02T21:43:11.366Z,79.70
2017-10-02T21:45:39.614Z,79.55
2017-10-02T21:48:07.875Z,79.54
2017-10-02T21:50:36.168Z,79.65
2017-10-02T21:53:05.315Z,79.39
2017-10-02T21:55:33.560Z,79.32
2017-10-02T21:58:01.821Z,79.16
2017-10-02T22:00:30.066Z,79.40
2017-10-02T22:02:59.826Z,79.27
2017-10-02T22:05:28.074Z,78.62
2017-10-02T22:07:56.318Z,78.42
2017-10-02T22:10:24.569Z,77.94
2017-10-02T22:12:52.837Z,77.95
2017-10-02T22:15:21.093Z,77.79
2017-10-02T22:17:49.365Z,77.60
2017-10-02T22:20:18.396Z,77.76
2017-10-02T22:22:46.645Z,77.41
2017-10-02T22:25:15.660Z,77.46
2017-10-02T22:27:43.981Z,77.10
2017-10-02T22:30:12.226Z,77.21
2017-10-02T22:32:40.480Z,76.91
2017-10-02T22:35:08.716Z,77.14
2017-10-02T22:37:37.735Z,77.00
2017-10-02T22:40:05.983Z,77.07
2017-10-02T22:42:34.233Z,77.18
2017-10-02T22:45:02.476Z,77.01
2017-10-02T22:47:30.962Z,77.46
2017-10-02T22:49:59.225Z,77.41
2017-10-02T22:52:27.475Z,77.42
2017-10-02T22:54:56.525Z,77.74
2017-10-02T22:57:31.469Z,77.94
2017-10-02T22:59:59.718Z,77.77
2017-10-02T23:02:27.972Z,77.99
2017-10-02T23:04:56.231Z,78.79
2017-10-02T23:07:25.249Z,78.99
2017-10-02T23:09:53.501Z,79.11
2017-10-02T23:12:22.681Z,78.81
2017-10-02T23:14:50.940Z,79.56
2017-10-02T23:17:19.184Z,80.34
2017-10-02T23:19:47.442Z,80.50
2017-10-02T23:22:15.694Z,81.37
2017-10-02T23:24:44.713Z,81.72
2017-10-02T23:27:12.958Z,82.56
2017-10-02T23:29:42.007Z,84.66
2017-10-02T23:32:10.263Z,84.31
2017-10-02T23:34:38.514Z,84.64
2017-10-02T23:37:07.639Z,85.02
2017-10-02T23:39:35.959Z,86.13
2017-10-02T23:42:04.288Z,86.41
2017-10-02T23:44:32.538Z,85.83
2017-10-02T23:47:01.589Z,85.92
2017-10-02T23:49:30.634Z,85.82
2017-10-02T23:51:59.653Z,86.07
2017-10-02T23:54:36.917Z,86.16
2017-10-02T23:57:12.120Z,87.43
